createdAt,value
2023-01-29T00:00:01.319Z,22.51
2023-01-29T00:02:43.140Z,22.50
2023-01-29T00:05:26.893Z,22.55
2023-01-29T00:07:59.281Z,22.54
2023-01-29T00:10:29.621Z,22.55
2023-01-29T00:12:59.346Z,22.64
2023-01-29T00:15:30.008Z,22.60
2023-01-29T00:18:00.816Z,22.62
2023-01-29T00:20:30.750Z,22.54
2023-01-29T00:23:00.716Z,22.51
2023-01-29T00:25:30.670Z,22.47
2023-01-29T00:28:02.020Z,22.50
2023-01-29T00:30:33.650Z,22.47
2023-01-29T00:33:03.557Z,22.47
2023-01-29T00:35:37.691Z,22.48
2023-01-29T00:38:08.608Z,22.51
2023-01-29T00:41:13.297Z,22.51
2023-01-29T00:44:01.978Z,22.51
2023-01-29T00:46:32.790Z,22.54
2023-01-29T00:49:03.019Z,22.55
2023-01-29T00:51:35.232Z,22.51
2023-01-29T00:54:07.843Z,22.50
2023-01-29T00:56:39.145Z,22.52
2023-01-29T00:59:09.473Z,22.54
2023-01-29T01:02:00.201Z,22.52
2023-01-29T01:04:32.222Z,22.54
2023-01-29T01:07:04.522Z,22.54
2023-01-29T01:09:56.499Z,22.52
2023-01-29T01:12:27.563Z,22.51
2023-01-29T01:14:58.044Z,22.47
2023-01-29T01:17:28.707Z,22.52
2023-01-29T01:20:00.000Z,22.55
2023-01-29T01:22:30.995Z,22.55
2023-01-29T01:25:01.199Z,22.58
2023-01-29T01:27:31.627Z,22.61
2023-01-29T01:30:01.900Z,22.60
2023-01-29T01:32:32.662Z,22.58
2023-01-29T01:35:04.201Z,22.58
2023-01-29T01:37:35.651Z,22.58
2023-01-29T01:40:19.388Z,22.55
2023-01-29T01:42:57.811Z,22.55
2023-01-29T01:45:33.297Z,22.55
2023-01-29T01:48:03.520Z,22.55
2023-01-29T01:50:56.577Z,22.54
2023-01-29T01:53:42.246Z,22.48
2023-01-29T01:56:21.596Z,22.50
2023-01-29T01:59:00.027Z,22.47
2023-01-29T02:01:30.624Z,22.44
2023-01-29T02:04:43.242Z,22.41
2023-01-29T02:07:35.416Z,22.44
2023-01-29T02:10:35.922Z,22.40
2023-01-29T02:13:07.866Z,22.41
2023-01-29T02:15:38.734Z,22.43
2023-01-29T02:18:09.458Z,22.40
2023-01-29T02:20:44.606Z,22.44
2023-01-29T02:23:28.494Z,22.43
2023-01-29T02:26:22.635Z,22.44
2023-01-29T02:28:57.213Z,22.50
2023-01-29T02:31:57.438Z,22.52
2023-01-29T02:34:53.070Z,22.47
2023-01-29T02:37:36.088Z,22.47
2023-01-29T02:40:32.481Z,22.47
2023-01-29T02:43:36.706Z,22.48
2023-01-29T02:46:12.466Z,22.52
2023-01-29T02:49:07.210Z,22.51
2023-01-29T02:51:47.111Z,22.48
2023-01-29T02:54:33.143Z,22.48
2023-01-29T02:57:17.318Z,22.47
2023-01-29T03:00:17.936Z,22.47
2023-01-29T03:02:51.241Z,22.50
2023-01-29T03:05:30.348Z,22.45
2023-01-29T03:08:11.391Z,22.44
2023-01-29T03:11:03.909Z,22.44
2023-01-29T03:13:44.234Z,22.43
2023-01-29T03:16:20.793Z,22.47
2023-01-29T03:19:00.510Z,22.45
2023-01-29T03:21:56.213Z,22.43
2023-01-29T03:24:52.207Z,22.44
2023-01-29T03:27:50.833Z,22.44
2023-01-29T03:30:41.918Z,22.47
2023-01-29T03:33:29.281Z,22.44
2023-01-29T03:36:07.684Z,22.44
2023-01-29T03:38:38.184Z,22.41
2023-01-29T03:41:30.324Z,22.43
2023-01-29T03:44:09.456Z,22.44
2023-01-29T03:47:05.535Z,22.47
2023-01-29T03:50:02.238Z,22.44
2023-01-29T03:52:44.762Z,22.50
2023-01-29T03:55:45.449Z,22.52
2023-01-29T03:58:37.203Z,22.57
2023-01-29T04:01:27.668Z,22.60
2023-01-29T04:04:28.277Z,22.57
2023-01-29T04:07:05.799Z,22.54
2023-01-29T04:09:41.129Z,22.52
2023-01-29T04:12:13.750Z,22.51
2023-01-29T04:14:47.553Z,22.51
2023-01-29T04:17:26.452Z,22.50
2023-01-29T04:20:20.122Z,22.50
2023-01-29T04:22:52.460Z,22.48
2023-01-29T04:25:27.716Z,22.47
2023-01-29T04:28:27.598Z,22.50
2023-01-29T04:31:05.375Z,22.48
2023-01-29T04:33:41.383Z,22.45
2023-01-29T04:36:11.076Z,22.48
2023-01-29T04:38:53.567Z,22.45
2023-01-29T04:41:45.943Z,22.45
2023-01-29T04:44:28.302Z,22.44
2023-01-29T04:47:29.706Z,22.44
2023-01-29T04:50:16.966Z,22.45
2023-01-29T04:53:21.149Z,22.44
2023-01-29T04:56:00.581Z,22.44
2023-01-29T04:58:34.991Z,22.44
2023-01-29T05:01:09.933Z,22.47
2023-01-29T05:03:44.995Z,22.47
2023-01-29T05:06:17.296Z,22.47
2023-01-29T05:08:49.030Z,22.50
2023-01-29T05:11:24.293Z,22.51
2023-01-29T05:13:56.285Z,22.48
2023-01-29T05:16:31.379Z,22.50
2023-01-29T05:19:02.469Z,22.47
2023-01-29T05:21:35.283Z,22.47
2023-01-29T05:24:22.512Z,22.48
2023-01-29T05:27:19.877Z,22.52
2023-01-29T05:29:50.665Z,22.55
2023-01-29T05:32:21.612Z,22.50
2023-01-29T05:34:51.805Z,22.52
2023-01-29T05:37:21.777Z,22.51
2023-01-29T05:39:52.012Z,22.50
2023-01-29T05:42:21.934Z,22.51
2023-01-29T05:44:53.103Z,22.54
2023-01-29T05:47:23.663Z,22.55
2023-01-29T05:49:54.251Z,22.50
2023-01-29T05:52:23.967Z,22.52
2023-01-29T05:54:54.372Z,22.52
2023-01-29T05:57:24.138Z,22.51
2023-01-29T05:59:55.130Z,22.48
2023-01-29T06:02:26.081Z,22.51
2023-01-29T06:04:56.277Z,22.45
2023-01-29T06:07:26.028Z,22.45
2023-01-29T06:09:56.558Z,22.47
2023-01-29T06:12:27.343Z,22.44
2023-01-29T06:14:58.759Z,22.44
2023-01-29T06:17:28.475Z,22.41
2023-01-29T06:19:58.634Z,22.44
2023-01-29T06:22:28.769Z,22.44
2023-01-29T06:24:58.686Z,22.44
2023-01-29T06:27:29.236Z,22.43
2023-01-29T06:30:00.887Z,22.45
2023-01-29T06:32:32.262Z,22.50
2023-01-29T06:35:02.446Z,22.54
2023-01-29T06:37:33.093Z,22.58
2023-01-29T06:40:04.287Z,22.52
2023-01-29T06:42:37.519Z,22.48
2023-01-29T06:45:09.601Z,22.41
2023-01-29T06:47:39.303Z,22.45
2023-01-29T06:50:11.278Z,22.45
2023-01-29T06:52:41.709Z,22.39
2023-01-29T06:55:12.508Z,22.45
2023-01-29T06:57:42.773Z,22.40
2023-01-29T07:00:13.194Z,22.39
2023-01-29T07:02:44.459Z,22.37
2023-01-29T07:05:15.289Z,22.36
2023-01-29T07:07:46.039Z,22.37
2023-01-29T07:10:16.461Z,22.40
2023-01-29T07:12:47.942Z,22.40
2023-01-29T07:15:21.426Z,22.36
2023-01-29T07:18:17.889Z,22.40
2023-01-29T07:20:48.070Z,22.36
2023-01-29T07:23:19.469Z,22.36
2023-01-29T07:25:53.661Z,22.36
2023-01-29T07:28:23.944Z,22.30
2023-01-29T07:31:01.191Z,22.31
2023-01-29T07:33:32.429Z,22.31
2023-01-29T07:36:02.795Z,22.29
2023-01-29T07:38:32.924Z,22.27
2023-01-29T07:41:03.355Z,22.25
2023-01-29T07:43:34.498Z,22.30
2023-01-29T07:46:05.899Z,22.31
2023-01-29T07:48:37.808Z,22.41
2023-01-29T07:51:08.718Z,22.51
2023-01-29T07:53:38.532Z,22.52
2023-01-29T07:56:09.852Z,22.52
2023-01-29T07:58:40.511Z,22.54
2023-01-29T08:01:10.574Z,22.52
2023-01-29T08:03:40.716Z,22.47
2023-01-29T08:06:11.756Z,22.47
2023-01-29T08:08:42.568Z,22.51
2023-01-29T08:11:12.495Z,22.50
2023-01-29T08:13:42.827Z,22.54
2023-01-29T08:16:12.853Z,22.57
2023-01-29T08:18:48.843Z,22.65
2023-01-29T08:21:19.471Z,22.69
2023-01-29T08:23:49.520Z,22.71
2023-01-29T08:26:20.072Z,22.72
2023-01-29T08:28:50.922Z,22.76
2023-01-29T08:31:22.402Z,22.76
2023-01-29T08:33:54.908Z,22.75
2023-01-29T08:36:25.049Z,22.78
2023-01-29T08:38:55.753Z,22.73
2023-01-29T08:41:26.972Z,22.73
2023-01-29T08:43:58.479Z,22.73
2023-01-29T08:46:28.432Z,22.73
2023-01-29T08:48:59.963Z,22.72
2023-01-29T08:51:30.849Z,22.73
2023-01-29T08:54:00.911Z,22.73
2023-01-29T08:56:31.099Z,22.76
2023-01-29T08:59:01.945Z,22.75
2023-01-29T09:01:32.787Z,22.76
2023-01-29T09:04:02.610Z,22.78
2023-01-29T09:06:33.428Z,22.85
2023-01-29T09:09:05.319Z,22.85
2023-01-29T09:11:35.712Z,22.84
2023-01-29T09:14:06.782Z,22.88
2023-01-29T09:16:37.226Z,22.89
2023-01-29T09:19:07.688Z,22.89
2023-01-29T09:21:39.114Z,22.91
2023-01-29T09:24:09.639Z,22.96
2023-01-29T09:26:41.230Z,22.99
2023-01-29T09:29:13.758Z,23.03
2023-01-29T09:31:44.208Z,23.03
2023-01-29T09:34:14.622Z,23.05
2023-01-29T09:36:45.465Z,23.01
2023-01-29T09:39:16.391Z,23.03
2023-01-29T09:42:05.875Z,23.13
2023-01-29T09:44:54.986Z,23.23
2023-01-29T09:47:28.190Z,23.23
2023-01-29T09:53:30.584Z,23.37
2023-01-29T09:56:07.634Z,23.36
2023-01-29T09:58:41.230Z,23.46
2023-01-29T10:01:19.413Z,23.53
2023-01-29T10:04:10.453Z,23.56
2023-01-29T10:06:45.625Z,23.61
2023-01-29T10:10:08.853Z,23.70
2023-01-29T10:13:12.939Z,23.71
2023-01-29T10:16:02.821Z,23.77
2023-01-29T10:18:54.334Z,23.91
2023-01-29T10:21:34.155Z,23.91
2023-01-29T10:24:23.206Z,24.00
2023-01-29T10:26:55.311Z,24.09
2023-01-29T10:29:29.304Z,24.12
2023-01-29T10:32:07.093Z,24.28
2023-01-29T10:34:41.609Z,24.38
2023-01-29T10:37:25.363Z,24.42
2023-01-29T10:39:55.739Z,24.32
2023-01-29T10:42:32.918Z,24.39
2023-01-29T10:45:19.571Z,24.35
2023-01-29T10:48:08.917Z,24.40
2023-01-29T10:50:54.941Z,24.28
2023-01-29T10:53:40.798Z,24.33
2023-01-29T10:56:30.523Z,24.33
2023-01-29T10:59:08.998Z,24.42
2023-01-29T11:01:42.808Z,24.36
2023-01-29T11:04:14.660Z,24.48
2023-01-29T11:06:45.612Z,24.65
2023-01-29T11:09:15.502Z,24.72
2023-01-29T11:11:49.852Z,24.70
2023-01-29T11:14:29.380Z,24.69
2023-01-29T11:17:03.451Z,24.72
2023-01-29T11:19:42.669Z,24.76
2023-01-29T11:22:17.018Z,24.84
2023-01-29T11:24:49.558Z,24.94
2023-01-29T11:27:30.952Z,25.02
2023-01-29T11:30:00.991Z,25.15
2023-01-29T11:32:35.190Z,25.04
2023-01-29T11:35:18.273Z,25.20
2023-01-29T11:37:49.412Z,25.15
2023-01-29T11:40:40.274Z,25.31
2023-01-29T11:43:32.385Z,25.41
2023-01-29T11:46:10.150Z,25.48
2023-01-29T11:48:59.456Z,25.45
2023-01-29T11:51:39.454Z,25.31
2023-01-29T11:54:21.164Z,25.27
2023-01-29T11:56:52.890Z,25.21
2023-01-29T11:59:44.200Z,25.17
2023-01-29T12:02:24.072Z,25.10
2023-01-29T12:05:00.114Z,25.10
2023-01-29T12:07:32.987Z,25.11
2023-01-29T12:10:04.887Z,25.23
2023-01-29T12:12:43.439Z,25.18
2023-01-29T12:15:20.698Z,25.13
2023-01-29T12:18:00.006Z,25.02
2023-01-29T12:20:44.413Z,24.94
2023-01-29T12:23:27.566Z,24.96
2023-01-29T12:26:04.211Z,25.13
2023-01-29T12:28:37.472Z,25.38
2023-01-29T12:31:26.077Z,25.72
2023-01-29T12:34:17.775Z,26.02
2023-01-29T12:37:02.329Z,26.03
2023-01-29T12:39:34.029Z,26.29
2023-01-29T12:42:14.467Z,26.60
2023-01-29T12:44:54.109Z,27.46
2023-01-29T12:47:34.141Z,28.21
2023-01-29T12:50:20.331Z,27.94
2023-01-29T12:53:03.839Z,28.53
2023-01-29T12:55:45.825Z,29.38
2023-01-29T12:58:23.536Z,29.62
2023-01-29T13:01:00.194Z,29.28
2023-01-29T13:03:36.645Z,29.02
2023-01-29T13:06:16.493Z,29.08
2023-01-29T13:09:09.616Z,28.97
2023-01-29T13:11:42.854Z,29.43
2023-01-29T13:14:32.997Z,28.65
2023-01-29T13:17:34.984Z,28.24
2023-01-29T13:20:28.040Z,27.83
2023-01-29T13:23:14.677Z,27.56
2023-01-29T13:25:46.069Z,28.55
2023-01-29T13:28:23.965Z,30.03
2023-01-29T13:31:15.427Z,30.70
2023-01-29T13:33:54.063Z,30.72
2023-01-29T13:36:30.339Z,31.23
2023-01-29T13:39:17.605Z,31.32
2023-01-29T13:41:48.174Z,31.40
2023-01-29T13:44:41.521Z,30.32
2023-01-29T13:47:23.490Z,29.99
2023-01-29T13:50:02.387Z,29.62
2023-01-29T13:52:58.760Z,29.38
2023-01-29T13:55:34.053Z,28.96
2023-01-29T13:58:06.552Z,28.93
2023-01-29T14:00:37.339Z,28.84
2023-01-29T14:03:13.523Z,28.79
2023-01-29T14:06:00.854Z,28.83
2023-01-29T14:08:39.281Z,28.93
2023-01-29T14:11:18.910Z,28.83
2023-01-29T14:13:53.602Z,28.53
2023-01-29T14:16:38.937Z,28.49
2023-01-29T14:19:24.305Z,29.39
2023-01-29T14:21:55.044Z,30.22
2023-01-29T14:24:29.566Z,31.42
2023-01-29T14:27:00.614Z,31.73
2023-01-29T14:29:35.122Z,32.16
2023-01-29T14:32:08.453Z,32.24
2023-01-29T14:34:49.446Z,31.53
2023-01-29T14:37:22.374Z,30.40
2023-01-29T14:43:27.102Z,30.05
2023-01-29T14:45:57.166Z,30.01
2023-01-29T14:48:39.642Z,31.32
2023-01-29T14:51:18.830Z,32.21
2023-01-29T14:53:52.075Z,32.45
2023-01-29T14:56:42.939Z,32.31
2023-01-29T14:59:21.223Z,32.98
2023-01-29T15:01:59.455Z,32.00
2023-01-29T15:04:55.906Z,30.95
2023-01-29T15:08:19.681Z,30.14
2023-01-29T15:11:14.710Z,29.61
2023-01-29T15:14:04.961Z,29.35
2023-01-29T15:16:57.205Z,30.65
2023-01-29T15:19:49.234Z,32.18
2023-01-29T15:22:27.054Z,32.52
2023-01-29T15:25:20.055Z,33.55
2023-01-29T15:27:52.601Z,33.61
2023-01-29T15:30:35.136Z,33.84
2023-01-29T15:33:06.230Z,34.12
2023-01-29T15:35:39.464Z,33.12
2023-01-29T15:38:22.550Z,33.04
2023-01-29T15:40:56.163Z,33.50
2023-01-29T15:43:26.566Z,33.20
2023-01-29T15:46:00.236Z,33.84
2023-01-29T15:48:50.866Z,34.36
2023-01-29T15:51:24.116Z,34.25
2023-01-29T15:54:06.057Z,34.57
2023-01-29T15:56:42.173Z,34.83
2023-01-29T15:59:19.944Z,33.14
2023-01-29T16:01:52.301Z,31.87
2023-01-29T16:04:29.959Z,31.08
2023-01-29T16:07:03.042Z,30.44
2023-01-29T16:09:33.643Z,30.10
2023-01-29T16:12:04.442Z,32.34
2023-01-29T16:14:36.088Z,33.91
2023-01-29T16:17:29.180Z,32.98
2023-01-29T16:20:01.624Z,31.88
2023-01-29T16:22:35.720Z,31.03
2023-01-29T16:25:16.283Z,32.55
2023-01-29T16:27:46.959Z,33.54
2023-01-29T16:30:20.145Z,34.04
2023-01-29T16:32:53.182Z,33.03
2023-01-29T16:35:23.659Z,33.20
2023-01-29T16:38:02.281Z,33.41
2023-01-29T16:40:36.698Z,34.02
2023-01-29T16:43:20.661Z,34.48
2023-01-29T16:46:21.528Z,34.60
2023-01-29T16:48:52.437Z,34.35
2023-01-29T16:51:41.891Z,34.22
2023-01-29T16:54:20.355Z,32.31
2023-01-29T16:56:54.253Z,32.20
2023-01-29T16:59:33.217Z,32.32
2023-01-29T17:02:05.632Z,31.60
2023-01-29T17:04:36.123Z,31.35
2023-01-29T17:07:06.081Z,32.25
2023-01-29T17:09:39.903Z,32.16
2023-01-29T17:12:20.683Z,31.80
2023-01-29T17:15:00.852Z,32.39
2023-01-29T17:17:33.332Z,31.63
2023-01-29T17:20:18.724Z,31.02
2023-01-29T17:22:50.273Z,31.83
2023-01-29T17:25:23.215Z,31.83
2023-01-29T17:27:53.572Z,31.66
2023-01-29T17:30:29.673Z,31.87
2023-01-29T17:33:00.547Z,31.51
2023-01-29T17:35:30.918Z,32.23
2023-01-29T17:38:01.308Z,33.50
2023-01-29T17:41:06.422Z,34.25
2023-01-29T17:43:38.052Z,33.61
2023-01-29T17:46:11.760Z,33.65
2023-01-29T17:48:43.089Z,32.45
2023-01-29T17:51:17.924Z,32.28
2023-01-29T17:53:48.682Z,31.87
2023-01-29T17:56:24.697Z,32.14
2023-01-29T17:58:55.043Z,32.21
2023-01-29T18:01:24.827Z,31.35
2023-01-29T18:03:56.948Z,30.78
2023-01-29T18:06:32.558Z,31.42
2023-01-29T18:09:03.209Z,32.64
2023-01-29T18:11:34.169Z,33.20
2023-01-29T18:14:14.069Z,33.33
2023-01-29T18:16:46.364Z,33.64
2023-01-29T18:19:24.499Z,33.97
2023-01-29T18:21:55.399Z,33.77
2023-01-29T18:24:28.525Z,33.41
2023-01-29T18:26:59.000Z,32.89
2023-01-29T18:29:31.265Z,32.87
2023-01-29T18:32:01.577Z,32.99
2023-01-29T18:34:31.461Z,33.41
2023-01-29T18:37:02.038Z,34.06
2023-01-29T18:39:32.248Z,33.72
2023-01-29T18:42:03.269Z,33.26
2023-01-29T18:44:33.252Z,33.09
2023-01-29T18:47:02.978Z,33.27
2023-01-29T18:49:33.505Z,33.09
2023-01-29T18:52:03.635Z,33.19
2023-01-29T18:54:34.006Z,33.19
2023-01-29T18:57:14.580Z,33.20
2023-01-29T18:59:54.630Z,32.83
2023-01-29T19:02:24.823Z,32.87
2023-01-29T19:04:55.654Z,33.14
2023-01-29T19:07:26.879Z,33.06
2023-01-29T19:09:57.322Z,33.03
2023-01-29T19:12:27.164Z,33.16
2023-01-29T19:14:58.187Z,33.27
2023-01-29T19:17:30.404Z,33.60
2023-01-29T19:20:03.323Z,33.62
2023-01-29T19:22:34.687Z,32.49
2023-01-29T19:25:05.181Z,32.75
2023-01-29T19:27:36.784Z,32.76
2023-01-29T19:30:08.308Z,31.46
2023-01-29T19:32:38.941Z,31.60
2023-01-29T19:35:10.398Z,30.95
2023-01-29T19:37:41.299Z,30.47
2023-01-29T19:40:11.873Z,30.26
2023-01-29T19:42:43.678Z,29.76
2023-01-29T19:45:14.991Z,29.41
2023-01-29T19:47:45.914Z,29.55
2023-01-29T19:50:16.491Z,29.35
2023-01-29T19:52:51.378Z,29.23
2023-01-29T19:55:23.577Z,29.11
2023-01-29T19:57:55.447Z,29.61
2023-01-29T20:00:26.157Z,29.81
2023-01-29T20:02:56.091Z,29.76
2023-01-29T20:05:28.335Z,29.76
2023-01-29T20:07:58.939Z,29.51
2023-01-29T20:10:29.633Z,29.43
2023-01-29T20:12:59.348Z,29.28
2023-01-29T20:15:29.429Z,29.27
2023-01-29T20:18:00.133Z,29.15
2023-01-29T20:20:32.557Z,29.03
2023-01-29T20:23:04.171Z,28.97
2023-01-29T20:25:34.360Z,29.02
2023-01-29T20:28:04.334Z,28.93
2023-01-29T20:30:36.186Z,28.89
2023-01-29T20:33:07.889Z,28.84
2023-01-29T20:35:39.106Z,28.80
2023-01-29T20:38:09.337Z,28.75
2023-01-29T20:40:39.871Z,28.70
2023-01-29T20:43:11.064Z,28.65
2023-01-29T20:45:41.694Z,28.62
2023-01-29T20:48:11.880Z,28.62
2023-01-29T20:50:44.011Z,28.59
2023-01-29T20:53:15.130Z,28.53
2023-01-29T20:55:46.983Z,28.46
2023-01-29T20:58:17.373Z,28.42
2023-01-29T21:00:47.551Z,28.38
2023-01-29T21:03:19.117Z,28.32
2023-01-29T21:05:49.503Z,28.28
2023-01-29T21:08:19.718Z,28.32
2023-01-29T21:10:52.066Z,28.25
2023-01-29T21:13:23.214Z,28.17
2023-01-29T21:15:53.697Z,28.09
2023-01-29T21:18:23.583Z,28.04
2023-01-29T21:20:55.209Z,27.97
2023-01-29T21:23:26.438Z,27.91
2023-01-29T21:26:04.764Z,27.90
2023-01-29T21:28:35.065Z,27.78
2023-01-29T21:31:11.213Z,27.70
2023-01-29T21:33:42.656Z,27.60
2023-01-29T21:36:12.979Z,27.57
2023-01-29T21:38:43.799Z,27.45
2023-01-29T21:41:14.026Z,27.39
2023-01-29T21:43:46.693Z,27.29
2023-01-29T21:46:17.232Z,27.19
2023-01-29T21:48:47.184Z,27.09
2023-01-29T21:51:18.916Z,26.92
2023-01-29T21:53:50.890Z,26.82
2023-01-29T21:56:21.095Z,26.72
2023-01-29T21:58:52.182Z,26.70
2023-01-29T22:01:37.337Z,26.64
2023-01-29T22:04:11.663Z,26.51
2023-01-29T22:06:41.810Z,26.39
2023-01-29T22:09:11.713Z,26.27
2023-01-29T22:11:43.454Z,26.19
2023-01-29T22:14:15.132Z,26.09
2023-01-29T22:16:47.916Z,26.17
2023-01-29T22:19:18.307Z,26.00
2023-01-29T22:21:48.056Z,25.96
2023-01-29T22:24:22.019Z,25.81
2023-01-29T22:26:53.589Z,25.72
2023-01-29T22:29:23.995Z,25.73
2023-01-29T22:31:54.221Z,25.72
2023-01-29T22:34:24.017Z,25.66
2023-01-29T22:36:54.955Z,25.59
2023-01-29T22:39:25.680Z,25.44
2023-01-29T22:41:55.946Z,25.24
2023-01-29T22:44:27.117Z,25.06
2023-01-29T22:46:57.395Z,25.03
2023-01-29T22:49:30.592Z,24.88
2023-01-29T22:52:13.424Z,24.75
2023-01-29T22:54:46.258Z,24.67
2023-01-29T22:57:17.091Z,24.70
2023-01-29T22:59:48.030Z,24.77
2023-01-29T23:02:19.037Z,24.65
2023-01-29T23:04:49.086Z,24.63
2023-01-29T23:07:18.863Z,24.62
2023-01-29T23:09:49.041Z,24.53
2023-01-29T23:12:19.113Z,24.45
2023-01-29T23:14:50.886Z,24.35
2023-01-29T23:17:21.187Z,24.26
2023-01-29T23:19:50.907Z,24.35
2023-01-29T23:22:23.213Z,24.49
2023-01-29T23:24:54.512Z,24.53
2023-01-29T23:27:25.388Z,24.75
2023-01-29T23:29:55.882Z,24.70
2023-01-29T23:32:26.770Z,24.62
2023-01-29T23:35:06.705Z,24.76
2023-01-29T23:37:38.029Z,24.76
2023-01-29T23:40:10.432Z,24.76
2023-01-29T23:42:40.645Z,24.65
2023-01-29T23:45:11.596Z,24.49
2023-01-29T23:47:42.437Z,24.39
2023-01-29T23:50:14.047Z,24.26
2023-01-29T23:52:45.602Z,24.17
2023-01-29T23:55:15.619Z,24.02
2023-01-29T23:57:45.322Z,23.89
